AirNav   Air Wisconsin pilot careers
 
 1143 users online  

N71 Donegal Springs Airpark
Mount Joy/Marietta, Pennsylvania, USA

GOING TO MOUNT JOY/MARIETTA?


FAA INFORMATION EFFECTIVE 19 JULY 2018

Location

FAA Identifier: N71
Lat/Long: 40-05-31.9440N / 076-34-27.6790W
40-05.532400N / 076-34.461317W
40.0922067 / -76.5743553
(estimated)
Elevation: 458 ft. / 140 m (estimated)
Variation: 09W (1975)
From city: 3 miles SW of central business district of the associated city
Time zone: UTC -4 (UTC -5 during Standard Time)
Zip code: 17547

Airport Operations

Airport use: Open to the public
Activation date: 05/1947
Control tower: no
ARTCC: NEW YORK CENTER
FSS: WILLIAMSPORT FLIGHT SERVICE STATION
NOTAMs facility: IPT (NOTAM-D service available)
Attendance: MON-FRI 0800-1700, ALL SAT UNATTND, ALL SUN UNATTND
Pattern altitude: 1258 ft. MSL
Wind indicator: yes
Segmented circle: no
Lights: ACTVT MIRL RY 10/28 - CTAF.
Beacon: white-green (lighted land airport)
ACTV BCN ON CTAF

Airport Communications

CTAF/UNICOM: 122.8
HARRISBURG APPROACH: 126.45
HARRISBURG DEPARTURE: 126.45
CLEARANCE DELIVERY: 127.05
WX ASOS at MDT (11 nm NW): PHONE 717-944-1372
WX ASOS at LNS (13 nm E): 125.675 (717-569-8860)
WX ASOS at CXY (15 nm NW): PHONE 717-770-0880
WX ASOS at THV (17 nm SW): 119.275 (717-792-5529)

Nearby radio navigation aids

VOR radial/distance  VOR name  Freq  Var
LRPr272/13.1LANCASTER VOR/DME117.3009W
HARr129/26.0HARRISBURG VORTAC112.5010W
RAVr189/27.7RAVINE VORTAC114.6011W

 
NDB name  Hdg/Dist  Freq  Var  ID
BELLGROVE193/20.632810WBZJ -... --.. .---

Airport Services

Fuel available: 100LL
Parking: tiedowns
Airframe service: MAJOR
Powerplant service: MAJOR
Bottled oxygen: NONE
Bulk oxygen: NONE

Runway Information

Runway 10/28

Dimensions: 3250 x 50 ft. / 991 x 15 m
Surface: asphalt, in fair condition
Weight bearing capacity: 
Single wheel: 12.5
Runway edge lights: medium intensity
RUNWAY 10  RUNWAY 28
Latitude: 40-05.508200N40-05.557200N
Longitude: 076-34.809183W076-34.115083W
Elevation: 458.0 ft.400.0 ft.
Traffic pattern: leftleft
Runway heading: 094 magnetic, 085 true274 magnetic, 265 true
Displaced threshold: 390 ft.
RW 10 DSPLCD THLD BAR 300' FROM RW END, DSPLCD THLD LGTS 390' FROM RW END.
no
Markings: nonprecision, in good conditionnonprecision, in good condition
Touchdown point: yes, no lightsyes, no lights

Airport Ownership and Management from official FAA records

Ownership: Privately-owned
Owner: N71, INC.
46825 SHELTON DRIVE
LEXINGTON PARK, MD 20653
Phone 301-904-0299
Manager: BEN TRAVIS
186 AIRPORT RD
MARIETTA, PA 17547
Phone 717-928-4360

Airport Operational Statistics

Aircraft based on the field: 14
Single engine airplanes: 13
Multi engine airplanes: 1
    
Aircraft operations: avg 33/day *
50% local general aviation
42% transient general aviation
8% military
* for 12-month period ending 12 December 2017

Additional Remarks

A58-10 RWY 10; +15 FT ROAD 16 FT FROM RWY END.
A52-10 RY 10 HAS +30 FT HOUSE 190 FT FM DSPLCD THLD, 206 FT RIGHT, APCH RATIO 6:1 BASED ON DSPLCD THLD.
A57-10 RY 10 APCH SLOPE RATIO 20:1 TO DSPLCD THLD LIGHTS AT 300 FT FM RY END.

Instrument Procedures

NOTE: All procedures below are presented as PDF files. If you need a reader for these files, you should download the free Adobe Reader.

NOT FOR NAVIGATION. Please procure official charts for flight.
FAA instrument procedures published for use from 19 July 2018 at 0901Z to 16 August 2018 at 0900Z.

 
IAPs - Instrument Approach Procedures
RNAV (GPS) RWY 28   download (160KB)
VOR RWY 28   download (189KB)
NOTE: Special Take-Off Minimums/Departure Procedures apply   download (149KB)

Other nearby airports with instrument procedures:

KMDT - Harrisburg International Airport (11 nm NW)
58N - Reigle Field Airport (12 nm N)
KLNS - Lancaster Airport (13 nm E)
KCXY - Capital City Airport (15 nm NW)
08N - Keller Brothers Airport (16 nm NE)
KTHV - York Airport (17 nm SW)
9D4 - Deck Airport (19 nm NE)
 
Loc | Ops | Rwys | IFR | FBO | Links
Com | Nav | Svcs | Stats | Notes


 
Area around N71 (Donegal Springs Airpark)
 
Road maps at: MapQuest Bing Google
 
Aerial photo
WARNING: Photo may not be current or correct
Aerial photo of N71 (Donegal Springs Airpark)
Looking east.

Do you have a better or more recent aerial photo of Donegal Springs Airpark that you would like to share? If so, please send us your photo.

 
Sectional chart

 
Airport distance calculator
Flying to Donegal Springs Airpark? Find the distance to fly.

From to N71

Sunrise and sunset
Times for 21-Jul-2018
 Local
(UTC-4)
 Zulu
(UTC)
Morning civil twilight05:2409:24
Sunrise05:5609:56
Sunset20:3000:30
Evening civil twilight21:0101:01

Current date and time
Zulu (UTC)  21-Jul-2018 15:06:26
Local (UTC-4)  21-Jul-2018 11:06:26
 
METAR
KMDT 
11nm NW 
211456Z 11009KT 7SM -RA SCT026 SCT050 OVC085 21/18 A3000 RMK AO2 RAB17 SLP159 P0001 60001 T02110178 58005 $
KLNS 
13nm E 
211453Z 10009KT 7SM -RA SCT027 BKN035 OVC075 21/18 A3003 RMK AO2 RAB35 SLP166 P0001 60001 T02110178 55001
KCXY 
15nm NW 
211456Z 10009KT 5SM RA BKN023 BKN055 OVC090 22/17 A3001 RMK AO2 RAB27 SLP162 P0003 60003 T02170172 58005
KTHV 
18nm SW 
211453Z AUTO 10009KT 6SM -RA BR FEW019 SCT070 OVC090 21/19 A3001 RMK AO2 RAB1354 SLP161 P0006 60006 T02060189 58003
KMUI 
19nm N 
211457Z AUTO 06005KT 10SM BKN031 21/17 A3003 RMK AO2 DZE56 SLP170
TAF
KMDT 
11nm NW 
211213Z 2112/2212 09008KT P6SM BKN025 FM211500 09010KT P6SM VCSH OVC030 FM211800 06010KT 5SM -RA BR OVC025 FM220000 03013G20KT 2SM +RA BR OVC010 FM220600 32010KT 5SM -SHRA OVC008 FM220900 21005KT 4SM BR OVC005
KLNS 
13nm E 
211213Z 2112/2212 09008KT P6SM VCSH BKN035 FM211300 08009KT P6SM -SHRA OVC030 FM211800 07010KT 5SM -RA BR OVC025 FM220000 04013G20KT 2SM +RA BR OVC010 FM220600 34010KT 5SM -SHRA OVC008 FM220900 22005KT 4SM BR OVC005
KMUI 
19nm N 
210408Z 2104/2201 14009KT 9999 SCT050 QNH3007INS BECMG 2108/2109 10006KT 9999 SCT020 BKN025 QNH3004INS BECMG 2114/2115 11012G18KT 9999 BKN025 QNH3004INS BECMG 2117/2118 10012G18KT 8000 -RA SCT025 BKN060 QNH2997INS BECMG 2123/2124 08009KT 4800 -RA BR BKN010 OVC100 QNH2995INS TX29/2119Z TN15/2110Z LAST NO AMDS AFT 2105 NEXT 2311
NOTAMs
Click for the latest NOTAMs
NOTAMs are issued by the DoD/FAA and will open in a separate window not controlled by AirNav.

 

 
 

FBO, Fuel Providers, and Aircraft Ground Support

  
 Business Name 
 
 Contact 
 
 Services / Description 
 
Fuel Prices
 
Comments
  
N71, Inc. 301-904-0299
no information available

If you are affiliated with N71, Inc. and would like to show here your services, contact info, web link, logo, and more, click here
100LL
SS $5.09 
 Updated 19-Jul-2018
 
   2 read write
SS=Self service
Update Fuel Prices
 

Would you like to see your business listed on this page?

 If your business provides an interesting product or service to pilots, flight crews, aircraft, or users of the Donegal Springs Airpark, you should consider listing it here.  To start the listing process, click on the button below
 
Add a business
 

Other Pages about Donegal Springs Airpark

Update a link
 
Copyright © AirNav, LLC. All rights reserved. Privacy Policy  Contact